sensor_id;sensor_type;location;lat;lon;timestamp;P1;durP1;ratioP1;P2;durP2;ratioP2
21022;SDS011;10669;51.076;3.714;2022-11-20T00:01:19;81.97;;;30.00;;
21022;SDS011;10669;51.076;3.714;2022-11-20T00:03:46;68.87;;;32.47;;
21022;SDS011;10669;51.076;3.714;2022-11-20T00:06:14;65.30;;;29.70;;
21022;SDS011;10669;51.076;3.714;2022-11-20T00:08:41;73.73;;;30.00;;
21022;SDS011;10669;51.076;3.714;2022-11-20T00:11:11;72.70;;;31.50;;
21022;SDS011;10669;51.076;3.714;2022-11-20T00:13:38;73.13;;;30.60;;
21022;SDS011;10669;51.076;3.714;2022-11-20T00:16:06;74.53;;;31.80;;
21022;SDS011;10669;51.076;3.714;2022-11-20T00:18:34;81.83;;;32.23;;
21022;SDS011;10669;51.076;3.714;2022-11-20T00:21:07;81.83;;;32.33;;
21022;SDS011;10669;51.076;3.714;2022-11-20T00:23:36;76.67;;;32.40;;
21022;SDS011;10669;51.076;3.714;2022-11-20T00:26:05;75.43;;;32.63;;
21022;SDS011;10669;51.076;3.714;2022-11-20T00:28:32;82.70;;;30.77;;
21022;SDS011;10669;51.076;3.714;2022-11-20T00:31:03;88.10;;;34.57;;
21022;SDS011;10669;51.076;3.714;2022-11-20T00:33:35;75.57;;;31.87;;
21022;SDS011;10669;51.076;3.714;2022-11-20T00:36:02;80.30;;;32.53;;
21022;SDS011;10669;51.076;3.714;2022-11-20T00:38:29;79.47;;;32.00;;
21022;SDS011;10669;51.076;3.714;2022-11-20T00:41:00;76.87;;;32.77;;
21022;SDS011;10669;51.076;3.714;2022-11-20T00:43:29;85.93;;;34.43;;
21022;SDS011;10669;51.076;3.714;2022-11-20T00:48:28;90.97;;;30.90;;
21022;SDS011;10669;51.076;3.714;2022-11-20T00:50:54;88.47;;;33.17;;
21022;SDS011;10669;51.076;3.714;2022-11-20T00:53:20;79.33;;;32.00;;
21022;SDS011;10669;51.076;3.714;2022-11-20T00:56:00;90.20;;;31.87;;
21022;SDS011;10669;51.076;3.714;2022-11-20T00:58:28;86.17;;;32.27;;
21022;SDS011;10669;51.076;3.714;2022-11-20T01:01:00;79.60;;;32.87;;
21022;SDS011;10669;51.076;3.714;2022-11-20T01:03:27;77.37;;;31.83;;
21022;SDS011;10669;51.076;3.714;2022-11-20T01:05:52;76.47;;;30.20;;
21022;SDS011;10669;51.076;3.714;2022-11-20T01:08:18;76.47;;;31.73;;
21022;SDS011;10669;51.076;3.714;2022-11-20T01:10:43;74.17;;;32.47;;
21022;SDS011;10669;51.076;3.714;2022-11-20T01:13:09;71.37;;;31.47;;
21022;SDS011;10669;51.076;3.714;2022-11-20T01:15:53;71.23;;;31.90;;
21022;SDS011;10669;51.076;3.714;2022-11-20T01:18:19;79.40;;;31.90;;
21022;SDS011;10669;51.076;3.714;2022-11-20T01:20:44;68.97;;;31.73;;
21022;SDS011;10669;51.076;3.714;2022-11-20T01:23:11;85.43;;;33.23;;
21022;SDS011;10669;51.076;3.714;2022-11-20T01:25:37;78.07;;;31.60;;
21022;SDS011;10669;51.076;3.714;2022-11-20T01:28:04;67.13;;;30.20;;
21022;SDS011;10669;51.076;3.714;2022-11-20T01:30:30;74.77;;;30.97;;
21022;SDS011;10669;51.076;3.714;2022-11-20T01:32:55;74.47;;;30.90;;
21022;SDS011;10669;51.076;3.714;2022-11-20T01:35:22;74.57;;;31.47;;
21022;SDS011;10669;51.076;3.714;2022-11-20T01:37:51;67.83;;;30.97;;
21022;SDS011;10669;51.076;3.714;2022-11-20T01:40:16;65.53;;;30.53;;
21022;SDS011;10669;51.076;3.714;2022-11-20T01:42:46;73.53;;;32.30;;
21022;SDS011;10669;51.076;3.714;2022-11-20T01:51:13;79.80;;;28.27;;
21022;SDS011;10669;51.076;3.714;2022-11-20T01:53:45;72.60;;;29.70;;
21022;SDS011;10669;51.076;3.714;2022-11-20T01:56:12;59.17;;;27.17;;
21022;SDS011;10669;51.076;3.714;2022-11-20T01:58:42;69.10;;;28.07;;
21022;SDS011;10669;51.076;3.714;2022-11-20T02:01:13;64.23;;;29.37;;
21022;SDS011;10669;51.076;3.714;2022-11-20T02:03:39;61.50;;;28.10;;
21022;SDS011;10669;51.076;3.714;2022-11-20T02:06:14;75.53;;;31.13;;
21022;SDS011;10669;51.076;3.714;2022-11-20T02:08:55;64.33;;;27.00;;
21022;SDS011;10669;51.076;3.714;2022-11-20T02:11:21;70.27;;;29.33;;
21022;SDS011;10669;51.076;3.714;2022-11-20T02:13:47;67.37;;;28.20;;
21022;SDS011;10669;51.076;3.714;2022-11-20T02:16:15;69.90;;;30.00;;
21022;SDS011;10669;51.076;3.714;2022-11-20T02:18:41;68.43;;;28.83;;
21022;SDS011;10669;51.076;3.714;2022-11-20T02:21:12;75.67;;;28.57;;
21022;SDS011;10669;51.076;3.714;2022-11-20T02:23:59;61.60;;;27.33;;
21022;SDS011;10669;51.076;3.714;2022-11-20T02:26:31;67.70;;;29.50;;
21022;SDS011;10669;51.076;3.714;2022-11-20T02:29:19;66.33;;;28.27;;
21022;SDS011;10669;51.076;3.714;2022-11-20T02:31:51;77.93;;;29.50;;
21022;SDS011;10669;51.076;3.714;2022-11-20T02:34:19;68.63;;;28.83;;
21022;SDS011;10669;51.076;3.714;2022-11-20T02:36:45;70.87;;;29.10;;
21022;SDS011;10669;51.076;3.714;2022-11-20T02:39:13;69.00;;;29.50;;
21022;SDS011;10669;51.076;3.714;2022-11-20T02:41:41;72.47;;;31.13;;
21022;SDS011;10669;51.076;3.714;2022-11-20T02:44:08;72.37;;;29.33;;
21022;SDS011;10669;51.076;3.714;2022-11-20T02:46:34;72.90;;;31.13;;
21022;SDS011;10669;51.076;3.714;2022-11-20T02:49:01;66.30;;;29.07;;
21022;SDS011;10669;51.076;3.714;2022-11-20T02:51:27;71.23;;;29.77;;
21022;SDS011;10669;51.076;3.714;2022-11-20T02:53:53;68.23;;;27.83;;
21022;SDS011;10669;51.076;3.714;2022-11-20T02:56:19;70.83;;;28.70;;
21022;SDS011;10669;51.076;3.714;2022-11-20T02:58:45;68.57;;;29.60;;
21022;SDS011;10669;51.076;3.714;2022-11-20T03:01:11;70.07;;;29.70;;
21022;SDS011;10669;51.076;3.714;2022-11-20T03:03:36;76.23;;;29.60;;
21022;SDS011;10669;51.076;3.714;2022-11-20T03:06:02;71.07;;;29.00;;
21022;SDS011;10669;51.076;3.714;2022-11-20T03:08:28;68.10;;;27.97;;
21022;SDS011;10669;51.076;3.714;2022-11-20T03:10:54;69.50;;;28.30;;
21022;SDS011;10669;51.076;3.714;2022-11-20T03:13:20;69.23;;;29.70;;
21022;SDS011;10669;51.076;3.714;2022-11-20T03:15:46;67.17;;;28.57;;
21022;SDS011;10669;51.076;3.714;2022-11-20T03:18:11;67.13;;;28.17;;
21022;SDS011;10669;51.076;3.714;2022-11-20T03:20:38;77.67;;;30.20;;
21022;SDS011;10669;51.076;3.714;2022-11-20T03:23:04;69.53;;;30.27;;
21022;SDS011;10669;51.076;3.714;2022-11-20T03:25:31;71.03;;;30.60;;
21022;SDS011;10669;51.076;3.714;2022-11-20T03:27:56;70.97;;;29.43;;
21022;SDS011;10669;51.076;3.714;2022-11-20T03:30:22;74.50;;;29.70;;
21022;SDS011;10669;51.076;3.714;2022-11-20T03:32:48;70.13;;;30.50;;
21022;SDS011;10669;51.076;3.714;2022-11-20T03:35:17;60.23;;;27.40;;
21022;SDS011;10669;51.076;3.714;2022-11-20T03:37:43;88.30;;;32.27;;
21022;SDS011;10669;51.076;3.714;2022-11-20T03:40:08;69.67;;;30.23;;
21022;SDS011;10669;51.076;3.714;2022-11-20T03:42:35;75.63;;;29.27;;
21022;SDS011;10669;51.076;3.714;2022-11-20T03:45:11;69.93;;;27.77;;
21022;SDS011;10669;51.076;3.714;2022-11-20T03:47:41;69.87;;;29.23;;
21022;SDS011;10669;51.076;3.714;2022-11-20T03:50:09;63.87;;;28.93;;
21022;SDS011;10669;51.076;3.714;2022-11-20T03:52:35;69.87;;;29.03;;
21022;SDS011;10669;51.076;3.714;2022-11-20T03:55:01;67.70;;;28.60;;
21022;SDS011;10669;51.076;3.714;2022-11-20T03:57:27;68.73;;;26.87;;
21022;SDS011;10669;51.076;3.714;2022-11-20T03:59:54;70.97;;;27.50;;
21022;SDS011;10669;51.076;3.714;2022-11-20T04:02:19;71.63;;;29.17;;
21022;SDS011;10669;51.076;3.714;2022-11-20T04:04:45;75.23;;;29.73;;
21022;SDS011;10669;51.076;3.714;2022-11-20T04:07:11;70.63;;;27.23;;
21022;SDS011;10669;51.076;3.714;2022-11-20T04:09:37;71.30;;;30.57;;
21022;SDS011;10669;51.076;3.714;2022-11-20T04:12:03;71.00;;;28.30;;
21022;SDS011;10669;51.076;3.714;2022-11-20T04:14:30;78.73;;;29.03;;
21022;SDS011;10669;51.076;3.714;2022-11-20T04:16:55;67.07;;;28.17;;
21022;SDS011;10669;51.076;3.714;2022-11-20T04:19:22;71.77;;;29.23;;
21022;SDS011;10669;51.076;3.714;2022-11-20T04:21:49;80.43;;;28.73;;
21022;SDS011;10669;51.076;3.714;2022-11-20T04:24:14;81.43;;;31.23;;
21022;SDS011;10669;51.076;3.714;2022-11-20T04:26:40;74.30;;;30.40;;
21022;SDS011;10669;51.076;3.714;2022-11-20T04:29:09;78.90;;;29.37;;
21022;SDS011;10669;51.076;3.714;2022-11-20T04:31:36;76.63;;;31.13;;
21022;SDS011;10669;51.076;3.714;2022-11-20T04:34:03;79.27;;;30.70;;
21022;SDS011;10669;51.076;3.714;2022-11-20T04:36:31;72.80;;;29.33;;
21022;SDS011;10669;51.076;3.714;2022-11-20T04:38:59;78.70;;;29.30;;
21022;SDS011;10669;51.076;3.714;2022-11-20T04:41:28;69.03;;;28.10;;
21022;SDS011;10669;51.076;3.714;2022-11-20T04:43:56;74.70;;;29.90;;
21022;SDS011;10669;51.076;3.714;2022-11-20T04:46:30;78.50;;;30.37;;
21022;SDS011;10669;51.076;3.714;2022-11-20T04:48:58;67.13;;;28.17;;
21022;SDS011;10669;51.076;3.714;2022-11-20T04:51:24;66.40;;;27.73;;
21022;SDS011;10669;51.076;3.714;2022-11-20T04:53:50;62.43;;;25.73;;
21022;SDS011;10669;51.076;3.714;2022-11-20T04:56:16;64.63;;;26.53;;
21022;SDS011;10669;51.076;3.714;2022-11-20T04:58:41;77.73;;;28.50;;
21022;SDS011;10669;51.076;3.714;2022-11-20T05:03:40;67.93;;;26.93;;
21022;SDS011;10669;51.076;3.714;2022-11-20T05:06:08;70.40;;;27.97;;
21022;SDS011;10669;51.076;3.714;2022-11-20T05:08:34;74.67;;;28.63;;
21022;SDS011;10669;51.076;3.714;2022-11-20T05:11:04;64.17;;;26.93;;
21022;SDS011;10669;51.076;3.714;2022-11-20T05:13:31;78.10;;;32.17;;
21022;SDS011;10669;51.076;3.714;2022-11-20T05:16:02;78.70;;;29.13;;
21022;SDS011;10669;51.076;3.714;2022-11-20T05:18:34;75.77;;;30.80;;
21022;SDS011;10669;51.076;3.714;2022-11-20T05:21:01;96.83;;;31.70;;
21022;SDS011;10669;51.076;3.714;2022-11-20T05:23:29;89.00;;;33.37;;
21022;SDS011;10669;51.076;3.714;2022-11-20T05:25:56;89.53;;;34.13;;
21022;SDS011;10669;51.076;3.714;2022-11-20T05:28:23;87.37;;;33.20;;
21022;SDS011;10669;51.076;3.714;2022-11-20T05:30:51;82.63;;;30.93;;
21022;SDS011;10669;51.076;3.714;2022-11-20T05:33:20;103.27;;;35.73;;
21022;SDS011;10669;51.076;3.714;2022-11-20T05:35:46;98.57;;;34.73;;
21022;SDS011;10669;51.076;3.714;2022-11-20T05:38:16;87.70;;;30.67;;
21022;SDS011;10669;51.076;3.714;2022-11-20T05:40:41;104.50;;;34.17;;
21022;SDS011;10669;51.076;3.714;2022-11-20T05:43:10;104.10;;;36.37;;
21022;SDS011;10669;51.076;3.714;2022-11-20T05:45:36;95.20;;;33.10;;
21022;SDS011;10669;51.076;3.714;2022-11-20T05:48:01;118.40;;;38.90;;
21022;SDS011;10669;51.076;3.714;2022-11-20T05:50:28;119.20;;;37.50;;
21022;SDS011;10669;51.076;3.714;2022-11-20T05:52:54;117.20;;;39.27;;
21022;SDS011;10669;51.076;3.714;2022-11-20T05:55:20;127.00;;;38.57;;
21022;SDS011;10669;51.076;3.714;2022-11-20T05:57:47;124.43;;;38.07;;
21022;SDS011;10669;51.076;3.714;2022-11-20T06:00:19;114.27;;;35.10;;
21022;SDS011;10669;51.076;3.714;2022-11-20T06:02:50;111.50;;;35.87;;
21022;SDS011;10669;51.076;3.714;2022-11-20T06:05:16;116.60;;;36.50;;
21022;SDS011;10669;51.076;3.714;2022-11-20T06:10:11;117.47;;;34.47;;
21022;SDS011;10669;51.076;3.714;2022-11-20T06:12:43;108.53;;;35.33;;
21022;SDS011;10669;51.076;3.714;2022-11-20T06:15:09;102.10;;;33.60;;
21022;SDS011;10669;51.076;3.714;2022-11-20T06:17:35;102.23;;;34.70;;
21022;SDS011;10669;51.076;3.714;2022-11-20T06:20:01;118.73;;;35.37;;
21022;SDS011;10669;51.076;3.714;2022-11-20T06:22:26;110.73;;;35.00;;
21022;SDS011;10669;51.076;3.714;2022-11-20T06:24:52;127.63;;;37.77;;
21022;SDS011;10669;51.076;3.714;2022-11-20T06:27:18;116.03;;;36.23;;
21022;SDS011;10669;51.076;3.714;2022-11-20T06:29:43;125.00;;;37.27;;
21022;SDS011;10669;51.076;3.714;2022-11-20T06:32:10;112.90;;;36.10;;
21022;SDS011;10669;51.076;3.714;2022-11-20T06:34:37;123.47;;;34.27;;
21022;SDS011;10669;51.076;3.714;2022-11-20T06:37:03;103.80;;;33.37;;
21022;SDS011;10669;51.076;3.714;2022-11-20T06:39:29;105.97;;;32.70;;
21022;SDS011;10669;51.076;3.714;2022-11-20T06:41:58;100.07;;;32.43;;
21022;SDS011;10669;51.076;3.714;2022-11-20T06:44:23;116.80;;;35.03;;
21022;SDS011;10669;51.076;3.714;2022-11-20T06:46:49;107.30;;;34.80;;
21022;SDS011;10669;51.076;3.714;2022-11-20T06:49:18;109.60;;;32.30;;
21022;SDS011;10669;51.076;3.714;2022-11-20T06:51:43;108.83;;;33.27;;
21022;SDS011;10669;51.076;3.714;2022-11-20T06:54:09;96.97;;;31.53;;
21022;SDS011;10669;51.076;3.714;2022-11-20T06:56:34;97.83;;;32.33;;
21022;SDS011;10669;51.076;3.714;2022-11-20T06:59:03;94.53;;;30.20;;
21022;SDS011;10669;51.076;3.714;2022-11-20T07:01:31;103.63;;;32.60;;
21022;SDS011;10669;51.076;3.714;2022-11-20T07:04:03;98.83;;;32.33;;
21022;SDS011;10669;51.076;3.714;2022-11-20T07:06:29;108.93;;;33.13;;
21022;SDS011;10669;51.076;3.714;2022-11-20T07:08:55;89.63;;;30.83;;
21022;SDS011;10669;51.076;3.714;2022-11-20T07:11:22;100.07;;;30.50;;
21022;SDS011;10669;51.076;3.714;2022-11-20T07:13:48;92.30;;;29.23;;
21022;SDS011;10669;51.076;3.714;2022-11-20T07:16:14;91.70;;;31.30;;
21022;SDS011;10669;51.076;3.714;2022-11-20T07:18:41;97.07;;;29.67;;
21022;SDS011;10669;51.076;3.714;2022-11-20T07:23:35;90.63;;;30.47;;
21022;SDS011;10669;51.076;3.714;2022-11-20T07:26:08;92.50;;;28.97;;
21022;SDS011;10669;51.076;3.714;2022-11-20T07:28:36;91.03;;;30.40;;
21022;SDS011;10669;51.076;3.714;2022-11-20T07:31:02;94.10;;;29.33;;
21022;SDS011;10669;51.076;3.714;2022-11-20T07:33:29;93.43;;;29.53;;
21022;SDS011;10669;51.076;3.714;2022-11-20T07:35:55;94.13;;;29.00;;
21022;SDS011;10669;51.076;3.714;2022-11-20T07:38:23;95.93;;;30.73;;
21022;SDS011;10669;51.076;3.714;2022-11-20T07:40:52;81.53;;;29.33;;
21022;SDS011;10669;51.076;3.714;2022-11-20T07:43:19;90.00;;;27.57;;
21022;SDS011;10669;51.076;3.714;2022-11-20T07:45:44;92.33;;;30.10;;
21022;SDS011;10669;51.076;3.714;2022-11-20T07:48:12;78.97;;;30.00;;
21022;SDS011;10669;51.076;3.714;2022-11-20T07:50:40;93.47;;;31.03;;
21022;SDS011;10669;51.076;3.714;2022-11-20T07:53:05;85.93;;;28.50;;
21022;SDS011;10669;51.076;3.714;2022-11-20T07:55:31;90.20;;;30.47;;
21022;SDS011;10669;51.076;3.714;2022-11-20T07:57:57;90.77;;;28.87;;
21022;SDS011;10669;51.076;3.714;2022-11-20T08:00:24;84.17;;;29.10;;
21022;SDS011;10669;51.076;3.714;2022-11-20T08:02:50;89.60;;;28.63;;
21022;SDS011;10669;51.076;3.714;2022-11-20T08:05:16;80.30;;;27.60;;
21022;SDS011;10669;51.076;3.714;2022-11-20T08:07:43;89.87;;;27.67;;
21022;SDS011;10669;51.076;3.714;2022-11-20T08:10:10;91.37;;;31.07;;
21022;SDS011;10669;51.076;3.714;2022-11-20T08:12:47;99.33;;;31.17;;
21022;SDS011;10669;51.076;3.714;2022-11-20T08:15:32;93.23;;;32.27;;
21022;SDS011;10669;51.076;3.714;2022-11-20T08:18:04;92.97;;;30.00;;
21022;SDS011;10669;51.076;3.714;2022-11-20T08:20:32;87.63;;;29.47;;
21022;SDS011;10669;51.076;3.714;2022-11-20T08:23:01;93.63;;;30.33;;
21022;SDS011;10669;51.076;3.714;2022-11-20T08:25:30;100.07;;;32.87;;
21022;SDS011;10669;51.076;3.714;2022-11-20T08:27:57;89.10;;;28.87;;
21022;SDS011;10669;51.076;3.714;2022-11-20T08:30:29;87.57;;;28.23;;
21022;SDS011;10669;51.076;3.714;2022-11-20T08:33:00;93.17;;;30.60;;
21022;SDS011;10669;51.076;3.714;2022-11-20T08:35:36;93.70;;;29.30;;
21022;SDS011;10669;51.076;3.714;2022-11-20T08:38:08;90.90;;;31.90;;
21022;SDS011;10669;51.076;3.714;2022-11-20T08:40:34;91.37;;;28.97;;
21022;SDS011;10669;51.076;3.714;2022-11-20T08:43:00;83.63;;;29.10;;
21022;SDS011;10669;51.076;3.714;2022-11-20T08:45:25;91.83;;;30.43;;
21022;SDS011;10669;51.076;3.714;2022-11-20T08:47:51;101.67;;;30.47;;
21022;SDS011;10669;51.076;3.714;2022-11-20T08:50:18;92.73;;;31.93;;
21022;SDS011;10669;51.076;3.714;2022-11-20T08:52:43;93.90;;;31.30;;
21022;SDS011;10669;51.076;3.714;2022-11-20T08:55:09;99.77;;;31.03;;
21022;SDS011;10669;51.076;3.714;2022-11-20T08:57:36;95.97;;;31.07;;
21022;SDS011;10669;51.076;3.714;2022-11-20T09:00:03;85.27;;;28.63;;
21022;SDS011;10669;51.076;3.714;2022-11-20T09:02:31;87.30;;;29.43;;
21022;SDS011;10669;51.076;3.714;2022-11-20T09:04:58;75.20;;;25.50;;
21022;SDS011;10669;51.076;3.714;2022-11-20T09:07:25;80.80;;;28.37;;
21022;SDS011;10669;51.076;3.714;2022-11-20T09:09:51;72.53;;;26.37;;
21022;SDS011;10669;51.076;3.714;2022-11-20T09:12:17;85.37;;;28.97;;
21022;SDS011;10669;51.076;3.714;2022-11-20T09:14:42;76.73;;;28.13;;
21022;SDS011;10669;51.076;3.714;2022-11-20T09:17:09;81.70;;;29.17;;
21022;SDS011;10669;51.076;3.714;2022-11-20T09:19:39;81.13;;;28.10;;
21022;SDS011;10669;51.076;3.714;2022-11-20T09:22:06;74.10;;;27.07;;
21022;SDS011;10669;51.076;3.714;2022-11-20T09:24:32;78.17;;;26.17;;
21022;SDS011;10669;51.076;3.714;2022-11-20T09:26:57;72.13;;;27.87;;
21022;SDS011;10669;51.076;3.714;2022-11-20T09:29:27;79.27;;;27.13;;
21022;SDS011;10669;51.076;3.714;2022-11-20T09:31:52;75.47;;;27.30;;
21022;SDS011;10669;51.076;3.714;2022-11-20T09:34:18;66.23;;;23.57;;
21022;SDS011;10669;51.076;3.714;2022-11-20T09:36:44;75.30;;;26.83;;
21022;SDS011;10669;51.076;3.714;2022-11-20T09:39:10;65.27;;;25.07;;
21022;SDS011;10669;51.076;3.714;2022-11-20T09:44:17;67.43;;;24.50;;
21022;SDS011;10669;51.076;3.714;2022-11-20T09:47:05;62.97;;;23.07;;
21022;SDS011;10669;51.076;3.714;2022-11-20T09:49:58;64.40;;;25.23;;
21022;SDS011;10669;51.076;3.714;2022-11-20T09:55:13;56.87;;;23.23;;
21022;SDS011;10669;51.076;3.714;2022-11-20T09:57:42;56.27;;;21.37;;
21022;SDS011;10669;51.076;3.714;2022-11-20T10:00:12;52.03;;;19.77;;
21022;SDS011;10669;51.076;3.714;2022-11-20T10:02:52;52.43;;;21.23;;
21022;SDS011;10669;51.076;3.714;2022-11-20T10:05:23;52.77;;;21.63;;
21022;SDS011;10669;51.076;3.714;2022-11-20T10:08:32;49.60;;;20.53;;
21022;SDS011;10669;51.076;3.714;2022-11-20T10:11:29;46.10;;;20.70;;
21022;SDS011;10669;51.076;3.714;2022-11-20T10:20:00;42.27;;;17.97;;
21022;SDS011;10669;51.076;3.714;2022-11-20T10:25:50;40.80;;;18.03;;
21022;SDS011;10669;51.076;3.714;2022-11-20T10:30:47;41.67;;;17.60;;
21022;SDS011;10669;51.076;3.714;2022-11-20T10:33:25;31.13;;;16.33;;
21022;SDS011;10669;51.076;3.714;2022-11-20T10:41:24;29.87;;;14.37;;
21022;SDS011;10669;51.076;3.714;2022-11-20T10:44:14;29.43;;;13.87;;
21022;SDS011;10669;51.076;3.714;2022-11-20T10:47:04;25.90;;;11.40;;
21022;SDS011;10669;51.076;3.714;2022-11-20T10:49:33;29.03;;;12.67;;
21022;SDS011;10669;51.076;3.714;2022-11-20T10:52:05;29.00;;;10.80;;
21022;SDS011;10669;51.076;3.714;2022-11-20T11:00:11;19.40;;;9.27;;
21022;SDS011;10669;51.076;3.714;2022-11-20T11:02:43;14.50;;;7.17;;
21022;SDS011;10669;51.076;3.714;2022-11-20T11:07:55;13.60;;;6.27;;
21022;SDS011;10669;51.076;3.714;2022-11-20T11:10:24;14.67;;;6.27;;
21022;SDS011;10669;51.076;3.714;2022-11-20T11:13:06;15.40;;;5.93;;
21022;SDS011;10669;51.076;3.714;2022-11-20T11:15:43;15.00;;;6.30;;
21022;SDS011;10669;51.076;3.714;2022-11-20T11:18:10;15.53;;;6.37;;
21022;SDS011;10669;51.076;3.714;2022-11-20T11:20:36;12.93;;;5.13;;
21022;SDS011;10669;51.076;3.714;2022-11-20T11:23:03;13.00;;;6.00;;
21022;SDS011;10669;51.076;3.714;2022-11-20T11:25:30;12.27;;;5.57;;
21022;SDS011;10669;51.076;3.714;2022-11-20T11:28:04;16.50;;;5.33;;
21022;SDS011;10669;51.076;3.714;2022-11-20T11:30:45;10.07;;;5.07;;
21022;SDS011;10669;51.076;3.714;2022-11-20T11:33:18;9.43;;;5.13;;
21022;SDS011;10669;51.076;3.714;2022-11-20T11:35:46;9.33;;;5.13;;
21022;SDS011;10669;51.076;3.714;2022-11-20T11:38:19;8.63;;;4.80;;
21022;SDS011;10669;51.076;3.714;2022-11-20T11:41:05;8.93;;;4.03;;
21022;SDS011;10669;51.076;3.714;2022-11-20T11:43:36;10.90;;;4.37;;
21022;SDS011;10669;51.076;3.714;2022-11-20T11:46:24;8.80;;;3.83;;
21022;SDS011;10669;51.076;3.714;2022-11-20T11:49:00;9.43;;;4.03;;
21022;SDS011;10669;51.076;3.714;2022-11-20T11:51:33;12.27;;;4.37;;
21022;SDS011;10669;51.076;3.714;2022-11-20T11:54:17;6.17;;;3.93;;
21022;SDS011;10669;51.076;3.714;2022-11-20T11:56:47;8.73;;;4.13;;
21022;SDS011;10669;51.076;3.714;2022-11-20T11:59:59;10.63;;;4.77;;
21022;SDS011;10669;51.076;3.714;2022-11-20T12:02:34;7.07;;;4.23;;
21022;SDS011;10669;51.076;3.714;2022-11-20T12:07:43;18.33;;;5.90;;
21022;SDS011;10669;51.076;3.714;2022-11-20T12:13:33;10.87;;;5.97;;
21022;SDS011;10669;51.076;3.714;2022-11-20T12:15:58;10.03;;;5.70;;
21022;SDS011;10669;51.076;3.714;2022-11-20T12:18:27;13.03;;;5.80;;
21022;SDS011;10669;51.076;3.714;2022-11-20T12:40:56;7.73;;;6.03;;
21022;SDS011;10669;51.076;3.714;2022-11-20T12:44:08;12.83;;;6.87;;
21022;SDS011;10669;51.076;3.714;2022-11-20T12:50:09;13.17;;;8.70;;
21022;SDS011;10669;51.076;3.714;2022-11-20T12:53:33;11.33;;;7.87;;
21022;SDS011;10669;51.076;3.714;2022-11-20T12:56:19;20.30;;;9.63;;
21022;SDS011;10669;51.076;3.714;2022-11-20T12:58:53;14.73;;;10.23;;
21022;SDS011;10669;51.076;3.714;2022-11-20T13:04:29;13.13;;;9.07;;
21022;SDS011;10669;51.076;3.714;2022-11-20T13:07:09;15.00;;;11.30;;
21022;SDS011;10669;51.076;3.714;2022-11-20T13:09:40;14.27;;;9.17;;
21022;SDS011;10669;51.076;3.714;2022-11-20T13:12:19;19.07;;;13.50;;
21022;SDS011;10669;51.076;3.714;2022-11-20T13:17:59;43.30;;;23.40;;
21022;SDS011;10669;51.076;3.714;2022-11-20T13:20:29;16.37;;;11.90;;
21022;SDS011;10669;51.076;3.714;2022-11-20T13:22:59;20.00;;;12.03;;
21022;SDS011;10669;51.076;3.714;2022-11-20T13:27:53;25.80;;;17.73;;
21022;SDS011;10669;51.076;3.714;2022-11-20T13:30:21;16.33;;;12.67;;
21022;SDS011;10669;51.076;3.714;2022-11-20T13:32:53;24.07;;;17.90;;
21022;SDS011;10669;51.076;3.714;2022-11-20T13:35:27;14.43;;;11.63;;
21022;SDS011;10669;51.076;3.714;2022-11-20T13:38:02;9.40;;;8.10;;
21022;SDS011;10669;51.076;3.714;2022-11-20T13:40:37;11.70;;;8.27;;
21022;SDS011;10669;51.076;3.714;2022-11-20T13:46:08;13.83;;;7.23;;
21022;SDS011;10669;51.076;3.714;2022-11-20T13:48:39;11.27;;;7.00;;
21022;SDS011;10669;51.076;3.714;2022-11-20T13:51:20;9.30;;;6.27;;
21022;SDS011;10669;51.076;3.714;2022-11-20T13:53:57;8.30;;;6.73;;
21022;SDS011;10669;51.076;3.714;2022-11-20T13:56:48;12.03;;;6.83;;
21022;SDS011;10669;51.076;3.714;2022-11-20T13:59:28;10.50;;;6.67;;
21022;SDS011;10669;51.076;3.714;2022-11-20T14:02:21;10.47;;;6.80;;
21022;SDS011;10669;51.076;3.714;2022-11-20T14:04:49;7.37;;;6.20;;
21022;SDS011;10669;51.076;3.714;2022-11-20T14:07:20;8.73;;;6.33;;
21022;SDS011;10669;51.076;3.714;2022-11-20T14:09:51;11.43;;;6.80;;
21022;SDS011;10669;51.076;3.714;2022-11-20T14:12:22;11.13;;;6.23;;
21022;SDS011;10669;51.076;3.714;2022-11-20T14:14:58;7.20;;;5.93;;
21022;SDS011;10669;51.076;3.714;2022-11-20T14:17:34;7.47;;;5.67;;
21022;SDS011;10669;51.076;3.714;2022-11-20T14:20:05;7.47;;;6.73;;
21022;SDS011;10669;51.076;3.714;2022-11-20T14:22:37;9.20;;;7.07;;
21022;SDS011;10669;51.076;3.714;2022-11-20T14:25:23;12.27;;;7.17;;
21022;SDS011;10669;51.076;3.714;2022-11-20T14:27:59;11.10;;;8.37;;
21022;SDS011;10669;51.076;3.714;2022-11-20T14:30:26;10.23;;;7.93;;
21022;SDS011;10669;51.076;3.714;2022-11-20T14:32:56;10.17;;;7.00;;
21022;SDS011;10669;51.076;3.714;2022-11-20T14:35:27;7.63;;;6.60;;
21022;SDS011;10669;51.076;3.714;2022-11-20T14:37:55;9.23;;;8.00;;
21022;SDS011;10669;51.076;3.714;2022-11-20T14:40:32;12.07;;;8.93;;
21022;SDS011;10669;51.076;3.714;2022-11-20T14:43:22;10.03;;;6.93;;
21022;SDS011;10669;51.076;3.714;2022-11-20T14:45:59;18.43;;;12.43;;
21022;SDS011;10669;51.076;3.714;2022-11-20T14:48:31;19.53;;;11.30;;
21022;SDS011;10669;51.076;3.714;2022-11-20T14:51:04;22.13;;;11.30;;
21022;SDS011;10669;51.076;3.714;2022-11-20T14:53:29;18.77;;;9.53;;
21022;SDS011;10669;51.076;3.714;2022-11-20T14:55:58;14.23;;;7.20;;
21022;SDS011;10669;51.076;3.714;2022-11-20T14:58:26;12.73;;;6.30;;
21022;SDS011;10669;51.076;3.714;2022-11-20T15:00:56;11.83;;;5.23;;
21022;SDS011;10669;51.076;3.714;2022-11-20T15:03:38;14.23;;;5.30;;
21022;SDS011;10669;51.076;3.714;2022-11-20T15:06:06;23.17;;;4.97;;
21022;SDS011;10669;51.076;3.714;2022-11-20T15:08:35;14.77;;;4.10;;
21022;SDS011;10669;51.076;3.714;2022-11-20T15:11:01;13.43;;;3.83;;
21022;SDS011;10669;51.076;3.714;2022-11-20T15:13:34;16.20;;;3.53;;
21022;SDS011;10669;51.076;3.714;2022-11-20T15:16:02;12.40;;;3.20;;
21022;SDS011;10669;51.076;3.714;2022-11-20T15:18:37;10.00;;;2.93;;
21022;SDS011;10669;51.076;3.714;2022-11-20T15:21:10;12.30;;;3.77;;
21022;SDS011;10669;51.076;3.714;2022-11-20T15:23:41;13.17;;;3.13;;
21022;SDS011;10669;51.076;3.714;2022-11-20T15:26:07;6.30;;;2.90;;
21022;SDS011;10669;51.076;3.714;2022-11-20T15:28:44;14.23;;;3.23;;
21022;SDS011;10669;51.076;3.714;2022-11-20T15:31:19;17.33;;;3.10;;
21022;SDS011;10669;51.076;3.714;2022-11-20T15:33:48;15.77;;;3.73;;
21022;SDS011;10669;51.076;3.714;2022-11-20T15:36:14;18.43;;;3.60;;
21022;SDS011;10669;51.076;3.714;2022-11-20T15:38:40;18.30;;;3.37;;
21022;SDS011;10669;51.076;3.714;2022-11-20T15:41:06;21.00;;;3.73;;
21022;SDS011;10669;51.076;3.714;2022-11-20T15:43:32;18.03;;;3.63;;
21022;SDS011;10669;51.076;3.714;2022-11-20T15:46:01;23.80;;;3.80;;
21022;SDS011;10669;51.076;3.714;2022-11-20T15:48:31;17.23;;;3.87;;
21022;SDS011;10669;51.076;3.714;2022-11-20T15:53:37;15.00;;;3.43;;
21022;SDS011;10669;51.076;3.714;2022-11-20T15:56:03;16.97;;;3.67;;
21022;SDS011;10669;51.076;3.714;2022-11-20T15:58:29;20.77;;;3.50;;
21022;SDS011;10669;51.076;3.714;2022-11-20T16:00:55;20.50;;;4.77;;
21022;SDS011;10669;51.076;3.714;2022-11-20T16:03:21;20.00;;;4.40;;
21022;SDS011;10669;51.076;3.714;2022-11-20T16:05:47;24.63;;;5.27;;
21022;SDS011;10669;51.076;3.714;2022-11-20T16:08:13;19.53;;;5.00;;
21022;SDS011;10669;51.076;3.714;2022-11-20T16:10:39;20.07;;;4.23;;